createdAt,value
2022-11-22T00:00:08.890Z,5.28
2022-11-22T00:02:35.984Z,5.60
2022-11-22T00:05:03.574Z,4.80
2022-11-22T00:07:30.364Z,4.95
2022-11-22T00:09:57.063Z,4.55
2022-11-22T00:12:23.830Z,4.72
2022-11-22T00:14:55.446Z,4.65
2022-11-22T00:17:23.378Z,4.45
2022-11-22T00:19:49.958Z,4.88
2022-11-22T00:22:16.567Z,5.20
2022-11-22T00:24:44.151Z,4.90
2022-11-22T00:27:10.771Z,5.03
2022-11-22T00:29:37.445Z,4.72
2022-11-22T00:32:04.482Z,4.78
2022-11-22T00:34:31.099Z,4.97
2022-11-22T00:37:01.020Z,4.95
2022-11-22T00:39:28.034Z,5.05
2022-11-22T00:41:54.857Z,5.75
2022-11-22T00:44:21.533Z,5.40
2022-11-22T00:46:48.258Z,5.85
2022-11-22T00:49:14.967Z,5.07
2022-11-22T00:51:41.650Z,5.88
2022-11-22T00:54:08.500Z,6.00
2022-11-22T00:56:35.737Z,4.93
2022-11-22T00:59:02.381Z,5.10
2022-11-22T01:01:29.124Z,5.65
2022-11-22T01:03:55.795Z,4.97
2022-11-22T01:06:22.612Z,4.85
2022-11-22T01:08:49.443Z,4.60
2022-11-22T01:11:19.026Z,4.20
2022-11-22T01:13:45.678Z,4.85
2022-11-22T01:16:13.258Z,5.00
2022-11-22T01:18:40.523Z,4.32
2022-11-22T01:21:07.327Z,4.63
2022-11-22T01:23:35.227Z,4.38
2022-11-22T01:26:02.494Z,4.88
2022-11-22T01:28:29.444Z,5.00
2022-11-22T01:30:56.060Z,4.97
2022-11-22T01:33:23.389Z,4.45
2022-11-22T01:35:50.072Z,4.68
2022-11-22T01:38:17.060Z,4.20
2022-11-22T01:40:43.731Z,3.92
2022-11-22T01:43:18.198Z,4.85
2022-11-22T01:45:47.612Z,4.45
2022-11-22T01:48:18.974Z,4.05
2022-11-22T01:50:49.238Z,3.90
2022-11-22T01:53:22.324Z,4.93
2022-11-22T01:55:51.252Z,4.97
2022-11-22T01:58:19.600Z,5.03
2022-11-22T02:00:46.727Z,4.47
2022-11-22T02:03:17.218Z,4.18
2022-11-22T02:05:43.997Z,4.35
2022-11-22T02:08:15.534Z,3.58
2022-11-22T02:10:47.878Z,4.10
2022-11-22T02:13:16.048Z,4.20
2022-11-22T02:15:43.051Z,4.80
2022-11-22T02:18:10.294Z,4.75
2022-11-22T02:20:39.428Z,4.60
2022-11-22T02:23:07.126Z,4.53
2022-11-22T02:25:53.441Z,4.60
2022-11-22T02:28:20.065Z,4.47
2022-11-22T02:30:46.787Z,4.85
2022-11-22T02:33:13.523Z,5.18
2022-11-22T02:35:41.735Z,5.72
2022-11-22T02:38:12.502Z,4.55
2022-11-22T02:40:45.443Z,5.55
2022-11-22T02:43:17.238Z,4.57
2022-11-22T02:45:44.089Z,4.50
2022-11-22T02:48:13.883Z,4.88
2022-11-22T02:50:40.502Z,4.90
2022-11-22T02:53:08.526Z,4.68
2022-11-22T02:55:35.833Z,4.82
2022-11-22T02:58:03.442Z,4.40
2022-11-22T03:00:30.143Z,5.00
2022-11-22T03:02:56.758Z,5.22
2022-11-22T03:05:23.395Z,4.60
2022-11-22T03:07:50.904Z,4.35
2022-11-22T03:10:17.928Z,5.00
2022-11-22T03:12:44.606Z,4.60
2022-11-22T03:15:11.595Z,4.72
2022-11-22T03:17:38.420Z,5.32
2022-11-22T03:20:05.686Z,5.05
2022-11-22T03:22:32.395Z,4.43
2022-11-22T03:24:59.000Z,5.10
2022-11-22T03:27:25.621Z,5.35
2022-11-22T03:29:52.261Z,4.43
2022-11-22T03:32:18.857Z,4.85
2022-11-22T03:34:45.520Z,5.22
2022-11-22T03:37:12.187Z,4.05
2022-11-22T03:39:38.775Z,4.57
2022-11-22T03:42:05.471Z,4.53
2022-11-22T03:44:32.111Z,4.70
2022-11-22T03:46:58.813Z,5.03
2022-11-22T03:49:25.403Z,5.30
2022-11-22T03:51:51.973Z,4.55
2022-11-22T03:54:18.574Z,4.68
2022-11-22T03:56:45.181Z,5.28
2022-11-22T03:59:11.795Z,4.30
2022-11-22T04:01:38.424Z,4.75
2022-11-22T04:04:05.275Z,5.15
2022-11-22T04:06:32.087Z,5.45
2022-11-22T04:08:58.764Z,5.38
2022-11-22T04:11:25.464Z,5.30
2022-11-22T04:14:07.247Z,6.05
2022-11-22T04:16:33.887Z,5.47
2022-11-22T04:19:00.533Z,5.75
2022-11-22T04:21:35.688Z,5.63
2022-11-22T04:24:22.693Z,5.60
2022-11-22T04:29:17.336Z,5.30
2022-11-22T04:31:59.694Z,5.40
2022-11-22T04:34:26.628Z,6.05
2022-11-22T04:36:53.310Z,6.57
2022-11-22T04:39:23.502Z,6.50
2022-11-22T04:42:12.596Z,6.53
2022-11-22T04:44:42.377Z,7.68
2022-11-22T04:47:11.145Z,7.57
2022-11-22T04:49:38.196Z,8.57
2022-11-22T04:52:21.056Z,8.45
2022-11-22T04:54:47.745Z,8.68
2022-11-22T04:57:14.447Z,8.05
2022-11-22T04:59:41.104Z,8.85
2022-11-22T05:02:07.914Z,9.13
2022-11-22T05:04:34.638Z,9.48
2022-11-22T05:07:02.228Z,9.20
2022-11-22T05:09:29.086Z,9.50
2022-11-22T05:11:55.995Z,9.18
2022-11-22T05:14:22.652Z,9.75
2022-11-22T05:16:49.360Z,10.10
2022-11-22T05:19:16.094Z,9.63
2022-11-22T05:21:42.942Z,9.88
2022-11-22T05:24:09.652Z,11.23
2022-11-22T05:26:37.048Z,13.10
2022-11-22T05:29:05.899Z,11.38
2022-11-22T05:31:34.122Z,13.05
2022-11-22T05:34:01.364Z,13.50
2022-11-22T05:36:31.087Z,12.73
2022-11-22T05:38:57.741Z,13.07
2022-11-22T05:41:24.764Z,13.13
2022-11-22T05:43:51.337Z,13.73
2022-11-22T05:46:24.897Z,13.45
2022-11-22T05:48:53.219Z,13.00
2022-11-22T05:51:22.092Z,13.27
2022-11-22T05:53:48.742Z,13.23
2022-11-22T05:56:18.505Z,13.77
2022-11-22T05:58:45.654Z,14.38
2022-11-22T06:01:21.536Z,13.85
2022-11-22T06:03:49.123Z,14.77
2022-11-22T06:06:16.339Z,14.27
2022-11-22T06:08:47.861Z,14.75
2022-11-22T06:11:20.944Z,14.82
2022-11-22T06:13:49.968Z,14.88
2022-11-22T06:16:17.219Z,15.57
2022-11-22T06:18:44.440Z,17.23
2022-11-22T06:21:13.854Z,16.00
2022-11-22T06:23:40.522Z,16.77
2022-11-22T06:26:10.131Z,16.65
2022-11-22T06:28:38.579Z,16.67
2022-11-22T06:31:08.120Z,16.15
2022-11-22T06:33:34.952Z,16.85
2022-11-22T06:36:04.035Z,17.92
2022-11-22T06:38:30.687Z,17.27
2022-11-22T06:41:01.509Z,17.77
2022-11-22T06:43:29.840Z,16.42
2022-11-22T06:45:58.987Z,17.65
2022-11-22T06:48:26.916Z,16.88
2022-11-22T06:51:00.422Z,16.25
2022-11-22T06:53:46.168Z,16.65
2022-11-22T06:56:17.220Z,16.27
2022-11-22T06:58:45.124Z,15.82
2022-11-22T07:01:15.126Z,16.50
2022-11-22T07:03:42.918Z,16.15
2022-11-22T07:06:11.733Z,15.73
2022-11-22T07:08:39.384Z,15.18
2022-11-22T07:11:09.546Z,15.10
2022-11-22T07:13:36.951Z,15.48
2022-11-22T07:16:06.116Z,15.80
2022-11-22T07:18:33.248Z,15.07
2022-11-22T07:21:05.684Z,15.98
2022-11-22T07:23:34.935Z,15.63
2022-11-22T07:26:01.574Z,15.70
2022-11-22T07:28:28.316Z,15.77
2022-11-22T07:31:00.437Z,15.23
2022-11-22T07:33:27.231Z,14.93
2022-11-22T07:35:54.274Z,14.50
2022-11-22T07:38:21.253Z,14.50
2022-11-22T07:40:48.036Z,14.43
2022-11-22T07:43:15.311Z,14.82
2022-11-22T07:45:41.891Z,14.07
2022-11-22T07:48:08.555Z,14.15
2022-11-22T07:50:35.148Z,15.30
2022-11-22T07:53:01.775Z,14.90
2022-11-22T07:55:28.752Z,15.55
2022-11-22T07:57:58.746Z,15.95
2022-11-22T08:00:25.859Z,15.05
2022-11-22T08:02:52.614Z,13.93
2022-11-22T08:05:19.775Z,13.30
2022-11-22T08:07:48.359Z,13.00
2022-11-22T08:10:15.166Z,12.40
2022-11-22T08:12:41.993Z,13.07
2022-11-22T08:15:10.245Z,13.38
2022-11-22T08:17:38.257Z,14.20
2022-11-22T08:20:06.512Z,12.68
2022-11-22T08:22:33.091Z,13.48
2022-11-22T08:24:59.736Z,13.00
2022-11-22T08:27:26.353Z,14.30
2022-11-22T08:29:53.149Z,12.98
2022-11-22T08:32:19.850Z,14.10
2022-11-22T08:34:47.427Z,13.93
2022-11-22T08:37:14.328Z,15.73
2022-11-22T08:39:44.187Z,16.55
2022-11-22T08:42:10.814Z,15.38
2022-11-22T08:44:37.417Z,15.90
2022-11-22T08:47:04.056Z,16.17
2022-11-22T08:49:30.766Z,16.17
2022-11-22T08:51:57.473Z,16.52
2022-11-22T08:54:24.454Z,21.73
2022-11-22T08:56:51.146Z,19.88
2022-11-22T08:59:17.837Z,27.70
2022-11-22T09:01:44.804Z,15.73
2022-11-22T09:04:12.829Z,14.63
2022-11-22T09:12:08.433Z,13.77
2022-11-22T09:14:35.268Z,14.48
2022-11-22T09:17:01.949Z,15.52
2022-11-22T09:19:28.717Z,15.48
2022-11-22T09:21:55.547Z,14.85
2022-11-22T09:24:22.208Z,15.23
2022-11-22T09:26:48.938Z,15.88
2022-11-22T09:29:16.055Z,16.17
2022-11-22T09:31:43.048Z,15.55
2022-11-22T09:34:09.699Z,16.35
2022-11-22T09:36:36.573Z,16.15
2022-11-22T09:39:03.585Z,16.13
2022-11-22T09:42:00.752Z,16.95
2022-11-22T09:44:57.884Z,19.75
2022-11-22T09:47:39.720Z,23.20
2022-11-22T09:50:17.466Z,28.48
2022-11-22T09:53:04.552Z,34.30
2022-11-22T09:55:39.522Z,38.33
2022-11-22T09:58:23.672Z,34.53
2022-11-22T10:00:52.390Z,33.25
2022-11-22T10:03:36.285Z,34.72
2022-11-22T10:06:08.432Z,34.97
2022-11-22T10:08:35.601Z,36.25
2022-11-22T10:11:06.139Z,35.05
2022-11-22T10:13:41.226Z,34.45
2022-11-22T10:16:14.338Z,31.65
2022-11-22T10:19:00.837Z,30.48
2022-11-22T10:21:27.650Z,25.92
2022-11-22T10:23:54.392Z,20.55
2022-11-22T10:26:32.854Z,19.75
2022-11-22T10:29:34.712Z,16.98
2022-11-22T10:32:13.543Z,17.70
2022-11-22T10:34:55.553Z,16.42
2022-11-22T10:37:37.533Z,15.38
2022-11-22T10:40:21.000Z,18.63
2022-11-22T10:43:18.321Z,17.63
2022-11-22T10:48:19.602Z,19.55
2022-11-22T10:51:08.202Z,19.48
2022-11-22T10:54:05.322Z,20.17
2022-11-22T10:56:50.283Z,22.13
2022-11-22T10:59:17.900Z,22.40
2022-11-22T11:01:49.571Z,25.08
2022-11-22T11:04:18.226Z,25.25
2022-11-22T11:07:13.275Z,19.27
2022-11-22T11:10:09.599Z,19.55
2022-11-22T11:12:41.001Z,25.30
2022-11-22T11:15:21.733Z,25.77
2022-11-22T11:17:55.198Z,24.65
2022-11-22T11:20:28.995Z,23.60
2022-11-22T11:25:44.576Z,21.63
2022-11-22T11:28:20.320Z,24.77
2022-11-22T11:31:06.797Z,25.45
2022-11-22T11:33:37.939Z,22.65
2022-11-22T11:36:06.658Z,23.42
2022-11-22T11:38:54.624Z,22.45
2022-11-22T11:41:21.413Z,21.92
2022-11-22T11:43:49.075Z,21.40
2022-11-22T11:46:21.833Z,21.42
2022-11-22T11:48:52.099Z,20.67
2022-11-22T11:51:31.511Z,21.75
2022-11-22T11:54:01.880Z,22.27
2022-11-22T11:56:56.567Z,23.70
2022-11-22T11:59:31.484Z,24.20
2022-11-22T12:02:06.715Z,23.20
2022-11-22T12:04:36.634Z,24.02
2022-11-22T12:07:17.331Z,25.08
2022-11-22T12:09:46.257Z,22.77
2022-11-22T12:12:17.539Z,22.98
2022-11-22T12:15:10.163Z,20.20
2022-11-22T12:17:47.585Z,16.50
2022-11-22T12:20:22.150Z,16.05
2022-11-22T12:23:02.932Z,15.27
2022-11-22T12:25:36.231Z,14.65
2022-11-22T12:28:19.055Z,14.27
2022-11-22T12:30:55.662Z,14.23
2022-11-22T12:33:31.542Z,13.05
2022-11-22T12:35:59.075Z,13.48
2022-11-22T12:38:32.026Z,13.75
2022-11-22T12:41:05.827Z,12.63
2022-11-22T12:43:42.121Z,12.98
2022-11-22T12:46:19.333Z,13.25
2022-11-22T12:49:16.618Z,13.23
2022-11-22T12:51:44.248Z,12.82
2022-11-22T12:54:19.862Z,13.90
2022-11-22T12:56:51.797Z,13.82
2022-11-22T12:59:32.941Z,14.93
2022-11-22T13:02:29.125Z,13.38
2022-11-22T13:05:13.761Z,14.18
2022-11-22T13:08:10.864Z,14.90
2022-11-22T13:11:08.130Z,14.73
2022-11-22T13:13:41.228Z,13.65
2022-11-22T13:16:10.208Z,14.40
2022-11-22T13:18:45.845Z,14.80
2022-11-22T13:21:34.836Z,14.10
2022-11-22T13:24:24.086Z,14.98
2022-11-22T13:26:58.935Z,14.60
2022-11-22T13:29:28.450Z,13.52
2022-11-22T13:32:11.233Z,15.02
2022-11-22T13:34:42.314Z,14.98
2022-11-22T13:37:14.717Z,14.07
2022-11-22T13:39:50.191Z,15.63
2022-11-22T13:42:22.461Z,16.60
2022-11-22T13:45:12.094Z,15.75
2022-11-22T13:47:43.703Z,16.50
2022-11-22T13:50:45.651Z,17.83
2022-11-22T13:53:26.899Z,16.50
2022-11-22T13:55:53.575Z,16.58
2022-11-22T13:58:36.193Z,16.55
2022-11-22T14:01:02.831Z,17.40
2022-11-22T14:03:36.203Z,16.05
2022-11-22T14:06:22.173Z,17.00
2022-11-22T14:08:49.200Z,16.53
2022-11-22T14:11:40.639Z,17.35
2022-11-22T14:14:30.026Z,17.77
2022-11-22T14:17:05.039Z,18.70
2022-11-22T14:19:32.602Z,18.60
2022-11-22T14:22:11.123Z,19.33
2022-11-22T14:24:37.880Z,18.33
2022-11-22T14:27:26.875Z,20.80
2022-11-22T14:30:09.001Z,21.23
2022-11-22T14:33:06.121Z,23.55
2022-11-22T14:35:35.340Z,25.05
2022-11-22T14:38:30.625Z,26.52
2022-11-22T14:41:27.937Z,25.05
2022-11-22T14:44:13.510Z,25.13
2022-11-22T14:46:55.500Z,25.48
2022-11-22T14:49:44.067Z,24.83
2022-11-22T14:52:20.957Z,23.77
2022-11-22T14:54:52.231Z,24.30
2022-11-22T14:57:22.121Z,24.20
2022-11-22T15:00:13.844Z,23.30
2022-11-22T15:03:15.061Z,23.83
2022-11-22T15:09:11.061Z,23.65
2022-11-22T15:09:33.378Z,24.23
2022-11-22T15:12:13.384Z,25.30
2022-11-22T15:57:28.561Z,22.40
2022-11-22T15:59:56.166Z,20.88
2022-11-22T16:02:25.912Z,22.77
2022-11-22T16:06:03.504Z,22.33
2022-11-22T16:07:49.735Z,22.02
2022-11-22T16:10:37.910Z,22.23
2022-11-22T16:13:19.900Z,23.65
2022-11-22T16:16:07.204Z,23.10
2022-11-22T16:18:34.046Z,21.67
2022-11-22T16:21:02.787Z,23.30
2022-11-22T16:23:33.856Z,25.48
2022-11-22T16:26:13.734Z,24.42
2022-11-22T16:28:40.515Z,23.27
2022-11-22T16:31:17.546Z,22.67
2022-11-22T16:33:44.961Z,23.05
2022-11-22T16:36:15.212Z,20.88
2022-11-22T16:38:43.224Z,21.92
2022-11-22T16:41:19.717Z,22.27
2022-11-22T16:43:49.367Z,21.35
2022-11-22T16:46:16.463Z,18.58
2022-11-22T16:48:44.191Z,20.00
2022-11-22T16:51:13.241Z,19.60
2022-11-22T16:53:48.981Z,20.85
2022-11-22T16:56:25.058Z,17.23
2022-11-22T16:58:54.306Z,17.45
2022-11-22T17:01:24.578Z,17.08
2022-11-22T17:03:55.144Z,17.58
2022-11-22T17:06:24.448Z,19.70
2022-11-22T17:08:53.125Z,19.25
2022-11-22T17:11:22.414Z,19.95
2022-11-22T17:13:49.096Z,31.20
2022-11-22T17:16:17.955Z,30.25
2022-11-22T17:18:46.247Z,25.85
2022-11-22T17:21:20.985Z,23.08
2022-11-22T17:23:49.531Z,19.35
2022-11-22T17:26:16.355Z,20.10
2022-11-22T17:28:42.989Z,19.10
2022-11-22T17:31:13.142Z,19.88
2022-11-22T17:33:39.917Z,19.55
2022-11-22T17:36:19.616Z,20.38
2022-11-22T17:38:46.229Z,19.90
2022-11-22T17:41:12.869Z,19.10
2022-11-22T17:43:39.479Z,20.95
2022-11-22T17:46:06.143Z,21.25
2022-11-22T17:48:32.772Z,24.58
2022-11-22T17:50:59.414Z,35.72
2022-11-22T17:53:26.085Z,27.58
2022-11-22T17:56:10.169Z,19.00
2022-11-22T17:58:37.956Z,19.08
2022-11-22T18:01:08.513Z,17.80
2022-11-22T18:03:35.519Z,17.27
2022-11-22T18:06:02.323Z,17.38
2022-11-22T18:08:29.591Z,16.55
2022-11-22T18:10:59.734Z,17.50
2022-11-22T18:13:28.318Z,15.90
2022-11-22T18:16:02.998Z,14.15
2022-11-22T18:18:55.851Z,19.80
2022-11-22T18:23:46.380Z,24.50
2022-11-22T18:29:35.665Z,13.18
2022-11-22T18:34:23.117Z,10.57
2022-11-22T18:36:55.922Z,11.32
2022-11-22T18:39:26.138Z,10.73
2022-11-22T18:41:52.811Z,9.88
2022-11-22T18:44:19.604Z,10.75
2022-11-22T18:46:46.925Z,11.77
2022-11-22T18:49:13.579Z,13.27
2022-11-22T18:51:40.228Z,12.15
2022-11-22T18:54:09.958Z,11.20
2022-11-22T18:56:40.703Z,9.13
2022-11-22T18:59:09.992Z,7.88
2022-11-22T19:01:38.651Z,8.43
2022-11-22T19:04:05.583Z,8.60
2022-11-22T19:06:32.267Z,8.23
2022-11-22T19:08:59.025Z,11.48
2022-11-22T19:11:26.079Z,16.23
2022-11-22T19:13:53.069Z,15.38
2022-11-22T19:16:22.318Z,11.98
2022-11-22T19:18:49.748Z,11.35
2022-11-22T19:21:19.374Z,11.73
2022-11-22T19:23:46.950Z,10.63
2022-11-22T19:26:16.645Z,11.10
2022-11-22T19:28:43.314Z,10.60
2022-11-22T19:31:13.741Z,11.18
2022-11-22T19:33:40.957Z,11.63
2022-11-22T19:36:14.428Z,11.55
2022-11-22T19:38:42.649Z,11.18
2022-11-22T19:41:11.400Z,12.07
2022-11-22T19:43:38.519Z,11.75
2022-11-22T19:46:06.185Z,13.60
2022-11-22T19:48:35.771Z,12.90
2022-11-22T19:51:12.005Z,11.60
2022-11-22T19:53:39.049Z,12.23
2022-11-22T19:56:11.921Z,12.07
2022-11-22T19:58:38.887Z,11.77
2022-11-22T20:01:08.406Z,10.82
2022-11-22T20:03:36.234Z,11.07
2022-11-22T20:06:04.572Z,10.10
2022-11-22T20:08:31.774Z,9.43
2022-11-22T20:11:01.377Z,7.63
2022-11-22T20:13:28.125Z,8.57
2022-11-22T20:15:55.682Z,8.63
2022-11-22T20:18:22.297Z,7.88
2022-11-22T20:20:48.922Z,7.97
2022-11-22T20:23:15.589Z,7.70
2022-11-22T20:25:42.200Z,7.70
2022-11-22T20:28:08.819Z,7.75
2022-11-22T20:30:35.465Z,8.23
2022-11-22T20:33:02.502Z,7.78
2022-11-22T20:35:29.175Z,8.77
2022-11-22T20:37:55.788Z,8.15
2022-11-22T20:40:22.413Z,7.88
2022-11-22T20:42:52.333Z,7.25
2022-11-22T20:45:19.066Z,8.27
2022-11-22T20:47:45.694Z,9.15
2022-11-22T20:50:12.295Z,8.05
2022-11-22T20:52:38.953Z,9.57
2022-11-22T20:55:06.417Z,10.77
2022-11-22T20:57:34.070Z,11.45
2022-11-22T21:00:01.748Z,10.10
2022-11-22T21:02:28.408Z,9.63
2022-11-22T21:04:55.110Z,8.65
2022-11-22T21:07:21.937Z,8.32
2022-11-22T21:09:48.632Z,8.98
2022-11-22T21:12:15.294Z,9.35
2022-11-22T21:14:42.007Z,9.82
2022-11-22T21:17:37.115Z,9.75
2022-11-22T21:19:55.212Z,9.68
2022-11-22T21:22:21.881Z,9.73
2022-11-22T21:24:48.551Z,9.95
2022-11-22T21:27:15.197Z,9.13
2022-11-22T21:29:41.849Z,8.70
2022-11-22T21:32:08.567Z,8.65
2022-11-22T21:34:35.670Z,7.43
2022-11-22T21:37:02.289Z,7.57
2022-11-22T21:39:28.915Z,7.10
2022-11-22T21:41:55.638Z,6.88
2022-11-22T21:44:22.249Z,7.50
2022-11-22T21:46:48.899Z,7.15
2022-11-22T21:49:15.534Z,7.18
2022-11-22T21:51:42.376Z,6.95
2022-11-22T21:54:09.101Z,6.80
2022-11-22T21:56:35.776Z,6.88
2022-11-22T21:59:02.460Z,6.68
2022-11-22T22:01:29.296Z,6.35
2022-11-22T22:03:56.073Z,5.90
2022-11-22T22:06:30.192Z,6.03
2022-11-22T22:08:56.934Z,6.60
2022-11-22T22:11:23.897Z,6.55
2022-11-22T22:13:54.272Z,6.78
2022-11-22T22:16:23.838Z,6.60
2022-11-22T22:18:50.471Z,6.68
2022-11-22T22:21:18.423Z,6.65
2022-11-22T22:23:45.800Z,6.32
2022-11-22T22:26:15.500Z,5.55
2022-11-22T22:28:42.902Z,5.45
2022-11-22T22:31:14.611Z,6.32
2022-11-22T22:33:41.742Z,6.60
2022-11-22T22:36:10.448Z,8.50
2022-11-22T22:38:38.482Z,8.63
2022-11-22T22:41:06.316Z,8.70
2022-11-22T22:43:35.594Z,8.73
2022-11-22T22:46:18.940Z,7.97
2022-11-22T22:48:47.054Z,7.88
2022-11-22T22:51:17.762Z,7.63
2022-11-22T22:53:45.238Z,7.00
2022-11-22T22:56:13.207Z,9.00
2022-11-22T22:58:40.585Z,7.40
2022-11-22T23:01:18.526Z,8.07
2022-11-22T23:03:49.799Z,7.10
2022-11-22T23:06:17.350Z,6.88
2022-11-22T23:08:46.711Z,5.78
2022-11-22T23:11:14.132Z,6.53
2022-11-22T23:13:43.082Z,5.95
2022-11-22T23:16:12.533Z,6.60
2022-11-22T23:18:41.739Z,6.72
2022-11-22T23:21:12.073Z,5.55
2022-11-22T23:23:39.155Z,5.93
2022-11-22T23:26:09.508Z,6.90
2022-11-22T23:28:36.173Z,6.78
2022-11-22T23:31:09.327Z,6.57
2022-11-22T23:33:36.226Z,6.40
2022-11-22T23:36:05.482Z,6.50
2022-11-22T23:38:32.833Z,6.40
2022-11-22T23:40:59.842Z,6.07
2022-11-22T23:43:26.624Z,6.60
2022-11-22T23:45:53.382Z,6.45
2022-11-22T23:48:20.046Z,7.00
2022-11-22T23:50:46.698Z,7.55
2022-11-22T23:53:13.304Z,6.75
2022-11-22T23:55:39.932Z,6.75
2022-11-22T23:58:06.571Z,6.15
